Terminal Aerodrome Forecast
Issued by NWS

Current Version | Previous Version | Graphics & Text | Print | Product List | Glossary On
Versions: 1 2 3 4 5 6 7 8 9 10 11 12 13 14 15 16 17 18 19
000
FTUS41 KILN 132300
TAFLCK
TAF
KLCK 132340Z 1400/1424 19012KT P6SM BKN200
     FM141100 19017G24KT P6SM VCSH BKN050 OVC120
     FM141500 21022G25KT P6SM -SHRA OVC050
     FM141900 23016G24KT P6SM -SHRA VCTS SCT022 OVC040CB=

USA.gov is the U.S. government's official web portal to all federal, state and local government web resources and services.